Time;durP1;ratioP1;P1;durP2;ratioP2;P2;SDS_P1;SDS_P2;PMS_P1;PMS_P2;Temp;Humidity;BMP_temperature;BMP_pressure;BME280_temperature;BME280_humidity;BME280_pressure;Samples;Min_cycle;Max_cycle;Signal;HPM_P1;HPM_P2
2023/07/30 00:01:01;;;;;;;2.17;1.30;;;16.00;99.90;;;;;;5058181;28;20781;-66
2023/07/30 00:03:26;;;;;;;2.70;1.63;;;16.00;99.90;;;;;;5053919;28;20037;-64
2023/07/30 00:05:55;;;;;;;4.10;2.78;;;16.00;99.90;;;;;;5049537;28;20055;-65
2023/07/30 00:08:21;;;;;;;5.65;2.13;;;16.00;99.90;;;;;;5054785;28;20031;-65
2023/07/30 00:10:47;;;;;;;2.13;1.92;;;16.00;99.90;;;;;;5049048;28;20052;-65
2023/07/30 00:13:12;;;;;;;;;;;16.00;99.90;;;;;;5059806;28;20095;-65
2023/07/30 00:15:38;;;;;;;3.65;2.97;;;16.00;99.90;;;;;;5058952;28;19920;-66
2023/07/30 00:18:04;;;;;;;;;;;16.00;99.90;;;;;;5050862;28;20044;-65
2023/07/30 00:20:29;;;;;;;4.15;2.80;;;16.00;99.90;;;;;;5049138;28;20637;-65
2023/07/30 00:22:55;;;;;;;;;;;16.00;99.90;;;;;;5046073;28;20369;-65
2023/07/30 00:25:21;;;;;;;6.32;3.85;;;16.10;99.90;;;;;;5044973;28;20391;-66
2023/07/30 00:27:46;;;;;;;;;;;16.10;99.90;;;;;;5042504;28;20764;-65
2023/07/30 00:30:12;;;;;;;3.25;2.95;;;16.10;99.90;;;;;;5044837;28;20500;-65
2023/07/30 00:32:43;;;;;;;;;;;16.10;99.90;;;;;;5045087;28;20748;-65
2023/07/30 00:35:09;;;;;;;3.88;3.47;;;16.20;99.90;;;;;;5045722;28;19920;-65
2023/07/30 00:37:34;;;;;;;;;;;16.10;99.90;;;;;;5042722;28;20148;-65
2023/07/30 00:40:00;;;;;;;4.18;3.42;;;16.10;99.90;;;;;;5035031;28;19923;-65
2023/07/30 00:42:25;;;;;;;4.70;3.40;;;16.20;99.90;;;;;;5039142;28;20045;-65
2023/07/30 00:44:51;;;;;;;;;;;16.10;99.90;;;;;;5039590;28;20037;-65
2023/07/30 00:47:17;;;;;;;10.57;3.55;;;16.10;99.90;;;;;;5028852;28;19963;-64
2023/07/30 00:49:42;;;;;;;;;;;16.10;99.90;;;;;;5031689;28;20040;-65
2023/07/30 00:52:08;;;;;;;3.20;2.58;;;16.10;99.90;;;;;;5043452;28;20019;-65
2023/07/30 00:54:34;;;;;;;;;;;16.10;99.90;;;;;;5046580;28;20539;-65
2023/07/30 00:57:00;;;;;;;5.30;2.97;;;16.10;99.90;;;;;;5044363;28;19924;-65
2023/07/30 00:59:26;;;;;;;8.45;3.33;;;16.10;99.90;;;;;;5045490;28;20072;-65
2023/07/30 01:01:52;;;;;;;;;;;16.10;99.90;;;;;;5044419;28;20048;-65
2023/07/30 01:04:18;;;;;;;3.95;2.67;;;16.10;99.90;;;;;;5037320;28;20470;-65
2023/07/30 01:06:44;;;;;;;;;;;16.10;99.90;;;;;;5045946;28;20045;-65
2023/07/30 01:09:11;;;;;;;2.70;2.25;;;16.10;99.90;;;;;;5046595;28;19921;-64
2023/07/30 01:11:38;;;;;;;3.65;2.83;;;16.10;99.90;;;;;;5046257;28;20075;-65
2023/07/30 01:14:05;;;;;;;11.15;3.10;;;16.10;99.90;;;;;;5046320;28;20025;-65
2023/07/30 01:16:31;;;;;;;3.05;2.60;;;16.10;99.90;;;;;;5046035;28;20055;-65
2023/07/30 01:18:58;;;;;;;10.10;2.45;;;16.10;99.90;;;;;;5046573;28;20033;-64
2023/07/30 01:21:24;;;;;;;6.78;3.50;;;16.10;99.90;;;;;;5034558;28;20040;-63
2023/07/30 01:23:50;;;;;;;;;;;16.00;99.90;;;;;;5047102;28;20037;-65
2023/07/30 01:26:24;;;;;;;6.07;2.95;;;15.90;99.90;;;;;;5045343;28;19929;-65
2023/07/30 01:28:56;;;;;;;6.55;2.72;;;15.90;99.90;;;;;;5030109;28;20049;-65
2023/07/30 01:31:26;;;;;;;4.30;2.58;;;15.90;99.90;;;;;;5030008;28;20040;-65
2023/07/30 01:33:54;;;;;;;4.20;2.50;;;15.90;99.90;;;;;;5044941;28;20488;-65
2023/07/30 01:36:20;;;;;;;5.40;3.00;;;15.90;99.90;;;;;;5045761;28;20180;-65
2023/07/30 01:38:49;;;;;;;4.35;2.72;;;15.80;99.90;;;;;;5044928;28;20075;-65
2023/07/30 01:41:18;;;;;;;10.32;2.90;;;15.70;99.90;;;;;;5045834;28;20041;-65
2023/07/30 01:43:43;;;;;;;5.05;2.90;;;15.80;99.90;;;;;;5040182;28;20043;-65
2023/07/30 01:46:09;;;;;;;;;;;15.80;99.90;;;;;;5046336;28;20076;-65
2023/07/30 01:48:34;;;;;;;5.70;2.65;;;15.70;99.90;;;;;;5045409;28;19921;-65
2023/07/30 01:51:00;;;;;;;10.65;3.35;;;15.70;99.90;;;;;;5045559;28;20052;-64
2023/07/30 01:53:25;;;;;;;;;;;15.70;99.90;;;;;;5046325;28;20090;-65
2023/07/30 01:55:51;;;;;;;6.10;2.50;;;15.60;99.90;;;;;;5045518;28;19967;-65
2023/07/30 01:58:16;;;;;;;;;;;15.60;99.90;;;;;;5041657;28;20131;-65
2023/07/30 02:00:42;;;;;;;5.90;2.92;;;15.60;99.90;;;;;;5024357;28;19932;-65
2023/07/30 02:03:08;;;;;;;8.50;3.00;;;15.50;99.90;;;;;;5037189;28;20072;-65
2023/07/30 02:05:33;;;;;;;;;;;15.40;99.90;;;;;;5046032;28;20045;-65
2023/07/30 02:07:59;;;;;;;9.90;2.65;;;15.50;99.90;;;;;;5046028;28;20038;-65
2023/07/30 02:10:25;;;;;;;;;;;15.50;99.90;;;;;;5045512;28;20460;-65
2023/07/30 02:12:51;;;;;;;10.95;2.83;;;15.40;99.90;;;;;;5028942;28;19917;-65
2023/07/30 02:15:16;;;;;;;;;;;15.40;99.90;;;;;;5043687;28;20600;-65
2023/07/30 02:17:42;;;;;;;5.50;2.33;;;15.40;99.90;;;;;;5036156;28;20690;-65
2023/07/30 02:20:08;;;;;;;;;;;15.40;99.90;;;;;;5044444;28;20040;-65
2023/07/30 02:22:34;;;;;;;12.57;2.90;;;15.30;99.90;;;;;;5044824;28;20706;-65
2023/07/30 02:24:59;;;;;;;5.10;2.55;;;15.30;99.90;;;;;;5045363;28;20065;-64
2023/07/30 02:27:25;;;;;;;5.18;2.67;;;15.20;99.90;;;;;;5044394;28;20047;-65
2023/07/30 02:29:50;;;;;;;;;;;15.30;99.90;;;;;;5032936;28;20038;-69
2023/07/30 02:32:16;;;;;;;7.65;2.67;;;15.20;99.90;;;;;;5051392;28;19916;-65
2023/07/30 02:34:42;;;;;;;;;;;15.20;99.90;;;;;;5044807;28;20076;-66
2023/07/30 02:37:07;;;;;;;8.73;3.10;;;15.20;99.90;;;;;;5043759;28;19927;-67
2023/07/30 02:39:33;;;;;;;6.40;2.85;;;15.10;99.90;;;;;;5039197;28;20044;-66
2023/07/30 02:41:58;;;;;;;;;;;15.10;99.90;;;;;;5043453;28;20033;-66
2023/07/30 02:44:24;;;;;;;7.32;3.15;;;15.10;99.90;;;;;;5035885;28;19960;-66
2023/07/30 02:46:49;;;;;;;5.43;2.60;;;15.10;99.90;;;;;;5032929;28;20041;-65
2023/07/30 02:49:15;;;;;;;9.55;4.10;;;15.10;99.90;;;;;;5040149;28;20048;-66
2023/07/30 02:51:43;;;;;;;;;;;15.00;99.90;;;;;;5044782;28;20052;-66
2023/07/30 02:54:09;;;;;;;7.03;3.03;;;15.10;99.90;;;;;;5037367;28;19972;-66
2023/07/30 02:56:35;;;;;;;4.70;2.72;;;15.10;99.90;;;;;;5044579;28;20684;-65
2023/07/30 02:59:01;;;;;;;;;;;15.10;99.90;;;;;;5042736;28;20033;-66
2023/07/30 03:01:26;;;;;;;6.18;2.70;;;15.10;99.90;;;;;;5043443;28;19916;-66
2023/07/30 03:03:52;;;;;;;7.47;3.10;;;15.10;99.90;;;;;;5038537;28;20065;-66
2023/07/30 03:06:17;;;;;;;;;;;15.10;99.90;;;;;;5042864;28;20116;-66
2023/07/30 03:08:43;;;;;;;9.35;3.15;;;15.10;99.90;;;;;;5042889;28;19921;-66
2023/07/30 03:11:09;;;;;;;;;;;15.00;99.90;;;;;;5045404;28;20041;-65
2023/07/30 03:13:35;;;;;;;4.60;2.90;;;15.00;99.90;;;;;;5043876;28;19916;-66
2023/07/30 03:16:00;;;;;;;;;;;15.00;99.90;;;;;;5045130;28;20037;-65
2023/07/30 03:18:27;;;;;;;6.90;3.08;;;14.90;99.90;;;;;;5043723;28;20391;-66
2023/07/30 03:20:57;;;;;;;;;;;14.90;99.90;;;;;;5043224;28;20045;-67
2023/07/30 03:23:23;;;;;;;9.45;3.20;;;14.90;99.90;;;;;;5044362;28;19985;-66
2023/07/30 03:25:48;;;;;;;;;;;14.80;99.90;;;;;;5043889;28;20749;-66
2023/07/30 03:28:14;;;;;;;6.07;2.63;;;14.90;99.90;;;;;;5042866;28;20366;-65
2023/07/30 03:30:40;;;;;;;8.55;2.97;;;14.80;99.90;;;;;;5037077;28;20086;-66
2023/07/30 03:33:05;;;;;;;7.85;2.58;;;14.80;99.90;;;;;;5035654;28;20041;-66
2023/07/30 03:35:31;;;;;;;6.93;2.85;;;14.80;99.90;;;;;;5034711;28;20560;-66
2023/07/30 03:37:56;;;;;;;;;;;14.80;99.90;;;;;;5043385;28;20861;-66
2023/07/30 03:40:22;;;;;;;4.47;2.70;;;14.70;99.90;;;;;;5042471;28;19966;-66
2023/07/30 03:42:48;;;;;;;;;;;14.60;99.90;;;;;;5042109;28;20080;-65
2023/07/30 03:45:14;;;;;;;15.13;2.95;;;14.60;99.90;;;;;;5030988;28;19924;-65
2023/07/30 03:47:39;;;;;;;;;;;14.60;99.90;;;;;;5043119;28;20045;-65
2023/07/30 03:50:05;;;;;;;7.95;2.40;;;14.60;99.90;;;;;;5037392;28;19921;-66
2023/07/30 03:52:31;;;;;;;6.93;3.17;;;14.50;99.90;;;;;;5044583;28;20084;-66
2023/07/30 03:54:57;;;;;;;;;;;14.60;99.90;;;;;;5047629;28;20058;-66
2023/07/30 03:57:22;;;;;;;9.07;3.40;;;14.50;99.90;;;;;;5047316;28;20412;-65
2023/07/30 03:59:48;;;;;;;7.20;2.97;;;14.50;99.90;;;;;;5045229;28;20037;-66
2023/07/30 04:02:15;;;;;;;;;;;14.40;99.90;;;;;;5045778;28;20037;-65
2023/07/30 04:04:44;;;;;;;8.55;3.15;;;14.50;99.90;;;;;;5046648;28;19917;-65
2023/07/30 04:07:10;;;;;;;7.75;2.88;;;14.50;99.90;;;;;;5046338;28;20233;-65
2023/07/30 04:09:36;;;;;;;;;;;14.50;99.90;;;;;;5046764;28;20166;-65
2023/07/30 04:12:02;;;;;;;6.53;3.38;;;14.40;99.90;;;;;;5046239;28;20019;-65
2023/07/30 04:14:27;;;;;;;7.22;3.00;;;14.50;99.90;;;;;;5035584;28;20048;-65
2023/07/30 04:16:53;;;;;;;;;;;14.50;99.90;;;;;;5040886;28;20045;-65
2023/07/30 04:19:19;;;;;;;8.68;3.22;;;14.60;99.90;;;;;;5046312;28;19920;-64
2023/07/30 04:21:44;;;;;;;8.43;3.10;;;14.70;99.90;;;;;;5047142;28;20416;-64
2023/07/30 04:24:10;;;;;;;;;;;14.90;99.90;;;;;;5046977;28;20511;-65
2023/07/30 04:26:35;;;;;;;8.77;2.45;;;15.20;99.90;;;;;;5047010;28;19932;-65
2023/07/30 04:29:01;;;;;;;;;;;15.40;99.90;;;;;;5044345;28;20090;-66
2023/07/30 04:31:26;;;;;;;5.07;2.05;;;15.50;99.90;;;;;;5045416;28;19922;-66
2023/07/30 04:33:52;;;;;;;6.90;2.03;;;15.80;99.90;;;;;;5045036;28;20179;-66
2023/07/30 04:36:18;;;;;;;9.18;2.55;;;15.80;99.90;;;;;;5046989;28;20044;-65
2023/07/30 04:38:43;;;;;;;6.22;2.20;;;15.70;99.90;;;;;;5046794;28;20048;-67
2023/07/30 04:41:09;;;;;;;;;;;15.60;99.90;;;;;;5048180;28;20047;-65
2023/07/30 04:43:34;;;;;;;4.53;2.00;;;15.60;99.90;;;;;;5042425;28;20329;-66
2023/07/30 04:46:00;;;;;;;;;;;15.60;99.90;;;;;;5034800;28;20045;-66
2023/07/30 04:48:25;;;;;;;7.32;1.88;;;15.60;99.90;;;;;;5044822;28;19920;-66
2023/07/30 04:50:51;;;;;;;;;;;15.60;99.90;;;;;;5044618;28;20049;-65
2023/07/30 04:53:18;;;;;;;4.55;1.58;;;15.60;99.90;;;;;;5042753;28;19917;-65
2023/07/30 04:55:43;;;;;;;4.57;1.90;;;15.70;99.90;;;;;;5042002;28;20037;-65
2023/07/30 04:58:09;;;;;;;;;;;15.70;99.90;;;;;;5045676;28;20052;-66
2023/07/30 05:00:35;;;;;;;6.60;1.80;;;15.70;99.90;;;;;;5036071;28;19925;-65
2023/07/30 05:03:00;;;;;;;;;;;15.70;99.90;;;;;;5046963;28;20152;-66
2023/07/30 05:05:26;;;;;;;6.22;1.30;;;15.80;99.90;;;;;;5046503;28;20284;-65
2023/07/30 05:07:52;;;;;;;;;;;15.80;99.90;;;;;;5046348;28;20494;-65
2023/07/30 05:10:17;;;;;;;2.92;1.20;;;15.90;99.90;;;;;;5045291;28;19986;-66
2023/07/30 05:12:43;;;;;;;;;;;16.00;99.90;;;;;;5046154;28;20152;-66
2023/07/30 05:15:08;;;;;;;6.43;1.90;;;16.00;99.90;;;;;;5044522;28;19944;-65
2023/07/30 05:17:34;;;;;;;7.43;2.58;;;15.90;99.90;;;;;;5044985;28;20049;-64
2023/07/30 05:20:00;;;;;;;;;;;16.00;99.90;;;;;;5045871;28;20033;-65
2023/07/30 05:22:25;;;;;;;7.00;1.77;;;16.00;99.90;;;;;;5046949;28;19920;-64
2023/07/30 05:24:51;;;;;;;;;;;16.00;99.90;;;;;;5046690;28;20068;-65
2023/07/30 05:27:16;;;;;;;7.50;2.22;;;16.30;99.90;;;;;;5045213;28;20019;-65
2023/07/30 05:29:42;;;;;;;;;;;16.40;99.90;;;;;;5044491;28;20040;-65
2023/07/30 05:32:09;;;;;;;9.45;2.22;;;16.40;99.90;;;;;;5038386;28;20536;-65
2023/07/30 05:34:35;;;;;;;9.13;2.63;;;16.30;99.90;;;;;;5042163;28;20047;-65
2023/07/30 05:37:01;;;;;;;;;;;16.20;99.90;;;;;;5042120;28;20045;-65
2023/07/30 05:39:26;;;;;;;5.70;2.50;;;16.20;99.90;;;;;;5041193;28;19924;-65
2023/07/30 05:41:52;;;;;;;;;;;16.20;99.90;;;;;;5042497;28;20040;-64
2023/07/30 05:44:18;;;;;;;8.88;2.70;;;16.30;99.90;;;;;;5041448;28;19917;-64
2023/07/30 05:46:43;;;;;;;;;;;16.30;99.90;;;;;;5032924;28;20501;-65
2023/07/30 05:49:09;;;;;;;10.52;3.72;;;16.30;99.90;;;;;;5044137;28;19943;-65
2023/07/30 05:51:34;;;;;;;;;;;16.30;99.90;;;;;;5045586;28;20488;-65
2023/07/30 05:54:00;;;;;;;10.48;3.70;;;16.20;99.90;;;;;;5043881;28;19948;-65
2023/07/30 05:56:25;;;;;;;;;;;16.10;99.90;;;;;;5045309;28;20036;-66
2023/07/30 05:58:51;;;;;;;7.22;3.33;;;16.00;99.90;;;;;;5039868;28;19927;-65
2023/07/30 06:01:17;;;;;;;;;;;16.00;99.90;;;;;;5043596;28;20037;-65
2023/07/30 06:03:42;;;;;;;9.35;3.80;;;16.00;99.90;;;;;;5043684;28;20358;-65
2023/07/30 06:06:08;;;;;;;8.52;4.57;;;15.90;99.90;;;;;;5043602;28;20049;-65
2023/07/30 06:08:34;;;;;;;;;;;15.80;99.90;;;;;;5035912;28;20043;-65
2023/07/30 06:11:03;;;;;;;11.38;5.38;;;15.80;99.90;;;;;;5040286;28;20411;-65
2023/07/30 06:13:29;;;;;;;9.75;4.63;;;15.80;99.90;;;;;;5037844;28;20128;-65
2023/07/30 06:15:55;;;;;;;;;;;15.80;99.90;;;;;;5038220;28;20048;-66
2023/07/30 06:18:21;;;;;;;6.28;3.17;;;16.20;99.90;;;;;;5036926;28;19920;-65
2023/07/30 06:20:46;;;;;;;5.85;3.08;;;16.40;99.90;;;;;;5034006;28;20521;-65
2023/07/30 06:23:12;;;;;;;;;;;16.20;99.90;;;;;;5035797;28;20044;-65
2023/07/30 06:25:38;;;;;;;10.35;2.65;;;16.20;99.90;;;;;;5034480;28;19925;-66
2023/07/30 06:28:05;;;;;;;5.88;2.38;;;16.00;99.90;;;;;;5028306;28;20619;-64
2023/07/30 06:30:31;;;;;;;6.47;2.10;;;16.00;99.90;;;;;;5040912;28;20040;-65
2023/07/30 06:32:57;;;;;;;7.35;1.90;;;16.00;99.90;;;;;;5035927;28;20048;-64
2023/07/30 06:35:23;;;;;;;;;;;16.00;99.90;;;;;;5042557;28;20045;-65
2023/07/30 06:37:50;;;;;;;5.18;1.98;;;16.20;99.90;;;;;;5034770;28;20649;-63
2023/07/30 06:40:16;;;;;;;7.53;2.60;;;16.20;99.90;;;;;;5030355;28;20501;-66
2023/07/30 06:42:41;;;;;;;;;;;16.20;99.90;;;;;;5043392;28;20047;-65
2023/07/30 06:45:08;;;;;;;4.45;2.65;;;16.30;99.90;;;;;;5032524;28;19917;-65
2023/07/30 06:47:33;;;;;;;6.18;2.67;;;16.40;99.90;;;;;;5036728;28;20447;-66
2023/07/30 06:49:59;;;;;;;;;;;16.30;99.90;;;;;;5038504;28;20041;-66
2023/07/30 06:52:24;;;;;;;6.25;3.03;;;16.40;99.90;;;;;;5042390;28;20596;-67
2023/07/30 06:54:50;;;;;;;13.80;3.63;;;16.50;99.90;;;;;;5042887;28;20037;-65
2023/07/30 06:57:16;;;;;;;6.93;2.92;;;16.40;99.90;;;;;;5044505;28;20045;-67
2023/07/30 06:59:42;;;;;;;8.13;2.97;;;16.50;99.90;;;;;;5034209;28;20142;-68
2023/07/30 07:02:07;;;;;;;;;;;16.40;99.90;;;;;;5032828;28;20036;-66
2023/07/30 07:04:33;;;;;;;7.68;2.67;;;16.30;99.90;;;;;;5043200;28;19921;-69
2023/07/30 07:06:59;;;;;;;;;;;16.40;99.90;;;;;;5035427;28;20052;-66
2023/07/30 07:09:24;;;;;;;5.97;2.33;;;16.40;99.90;;;;;;5039416;28;19920;-66
2023/07/30 07:11:50;;;;;;;;;;;16.40;99.90;;;;;;5043403;28;20029;-64
2023/07/30 07:14:15;;;;;;;3.97;1.90;;;16.30;99.90;;;;;;5040318;28;19920;-64
2023/07/30 07:16:41;;;;;;;;;;;16.30;99.90;;;;;;5038487;28;20654;-63
2023/07/30 07:19:07;;;;;;;5.47;1.88;;;16.20;99.90;;;;;;5034563;28;19947;-63
2023/07/30 07:21:32;;;;;;;;;;;16.20;99.90;;;;;;5043038;28;20127;-63
2023/07/30 07:23:58;;;;;;;9.45;2.60;;;16.10;99.90;;;;;;5040303;28;19927;-64
2023/07/30 07:26:23;;;;;;;;;;;16.00;99.90;;;;;;5031605;28;20517;-63
2023/07/30 07:28:49;;;;;;;3.40;1.70;;;15.90;99.90;;;;;;5029884;28;19920;-65
2023/07/30 07:31:14;;;;;;;;;;;16.00;99.90;;;;;;5039746;28;20896;-65
2023/07/30 07:33:40;;;;;;;6.18;1.70;;;16.00;99.90;;;;;;5042661;28;19924;-65
2023/07/30 07:36:09;;;;;;;6.35;2.00;;;16.00;99.90;;;;;;5041670;28;20924;-65
2023/07/30 07:38:36;;;;;;;5.68;1.52;;;16.10;99.90;;;;;;5042180;28;20044;-65
2023/07/30 07:41:04;;;;;;;6.70;1.83;;;16.10;99.90;;;;;;5045107;28;20044;-65
2023/07/30 07:43:30;;;;;;;9.95;2.20;;;16.10;99.90;;;;;;5046738;28;20506;-65
2023/07/30 07:45:56;;;;;;;;;;;16.20;99.90;;;;;;5044264;28;20052;-66
2023/07/30 07:48:22;;;;;;;6.65;1.48;;;16.20;99.90;;;;;;5044342;28;19916;-65
2023/07/30 07:50:48;;;;;;;7.20;2.08;;;16.20;99.90;;;;;;5040018;28;20036;-65
2023/07/30 07:53:16;;;;;;;10.27;2.20;;;16.10;99.90;;;;;;5027275;28;20057;-64
2023/07/30 07:55:45;;;;;;;8.15;2.00;;;16.10;99.90;;;;;;5042058;28;20098;-65
2023/07/30 07:58:14;;;;;;;5.57;1.67;;;16.10;99.90;;;;;;5047171;28;20097;-65
2023/07/30 08:00:40;;;;;;;5.22;1.50;;;16.00;99.90;;;;;;5030940;28;20155;-65
2023/07/30 08:03:11;;;;;;;;;;;15.90;99.90;;;;;;5052933;28;20075;-65
2023/07/30 08:05:40;;;;;;;5.32;1.38;;;15.90;99.90;;;;;;5040217;28;19972;-65
2023/07/30 08:08:06;;;;;;;;;;;15.80;99.90;;;;;;5046237;28;20088;-65
2023/07/30 08:10:34;;;;;;;7.10;1.88;;;15.80;99.90;;;;;;5042532;28;19917;-65
2023/07/30 08:13:02;;;;;;;8.10;1.63;;;15.70;99.90;;;;;;5046148;28;20039;-66
2023/07/30 08:15:35;;;;;;;;;;;15.60;99.90;;;;;;5046399;28;20040;-65
2023/07/30 08:18:08;;;;;;;7.10;2.15;;;15.50;99.90;;;;;;5045981;28;19983;-65
2023/07/30 08:20:40;;;;;;;5.50;1.25;;;15.30;99.90;;;;;;5033291;28;20068;-64
2023/07/30 08:23:09;;;;;;;5.22;1.80;;;15.10;99.90;;;;;;5030718;28;20521;-66
2023/07/30 08:25:41;;;;;;;7.45;1.92;;;15.10;99.90;;;;;;5045840;28;20525;-65
2023/07/30 08:28:07;;;;;;;8.35;1.80;;;15.00;99.90;;;;;;5045697;28;20139;-65
2023/07/30 08:30:33;;;;;;;;;;;15.00;99.90;;;;;;5036753;28;20596;-65
2023/07/30 08:33:04;;;;;;;7.10;2.28;;;15.10;99.90;;;;;;5037317;28;20656;-65
2023/07/30 08:35:30;;;;;;;4.75;1.55;;;15.10;99.90;;;;;;5037561;28;20068;-65
2023/07/30 08:37:55;;;;;;;;;;;15.00;99.90;;;;;;5042582;28;20064;-65
2023/07/30 08:40:25;;;;;;;7.53;2.17;;;15.00;99.90;;;;;;5044043;28;19916;-65
2023/07/30 08:42:51;;;;;;;6.35;2.10;;;15.00;99.90;;;;;;5037122;28;20079;-66
2023/07/30 08:45:17;;;;;;;6.60;1.88;;;15.00;99.90;;;;;;5043745;28;20037;-66
2023/07/30 08:47:44;;;;;;;;;;;15.10;99.90;;;;;;5045710;28;20385;-65
2023/07/30 08:50:10;;;;;;;8.32;2.33;;;15.00;99.90;;;;;;5043094;28;19966;-66
2023/07/30 08:52:36;;;;;;;3.28;1.67;;;15.00;99.90;;;;;;5042953;28;20052;-66
2023/07/30 08:55:03;;;;;;;3.17;1.90;;;15.00;99.90;;;;;;5043359;28;20079;-66
2023/07/30 08:57:30;;;;;;;3.55;1.75;;;15.10;99.90;;;;;;5029909;28;20104;-66
2023/07/30 09:00:10;;;;;;;5.32;2.00;;;14.90;99.90;;;;;;5031408;28;20041;-65
2023/07/30 09:02:49;;;;;;;6.07;2.35;;;14.90;99.90;;;;;;5060090;28;20116;-65
2023/07/30 09:05:15;;;;;;;3.63;1.75;;;14.90;99.90;;;;;;5037230;28;20041;-66
2023/07/30 09:07:41;;;;;;;;;;;14.90;99.90;;;;;;5045823;28;20561;-66
2023/07/30 09:10:07;;;;;;;2.70;1.60;;;14.90;99.90;;;;;;5046839;28;19920;-65
2023/07/30 09:12:33;;;;;;;;;;;14.90;99.90;;;;;;5034748;28;20040;-65
2023/07/30 09:15:00;;;;;;;3.00;1.95;;;14.90;99.90;;;;;;5036271;28;19956;-65
2023/07/30 09:17:26;;;;;;;2.40;1.50;;;14.90;99.90;;;;;;5043220;28;20501;-65
2023/07/30 09:19:52;;;;;;;;;;;15.00;99.90;;;;;;5041287;28;20043;-64
2023/07/30 09:22:28;;;;;;;3.00;1.63;;;14.90;99.90;;;;;;5045416;28;20019;-65
2023/07/30 09:24:55;;;;;;;2.50;1.40;;;14.90;99.90;;;;;;5043381;28;20053;-65
2023/07/30 09:27:26;;;;;;;1.88;1.30;;;15.00;99.90;;;;;;5045865;28;20059;-66
2023/07/30 09:30:00;;;;;;;3.42;1.30;;;15.10;99.90;;;;;;5041786;28;20049;-65
2023/07/30 09:32:27;;;;;;;2.90;1.35;;;15.00;99.90;;;;;;5040390;28;20039;-65
2023/07/30 09:34:53;;;;;;;3.55;1.95;;;15.00;99.90;;;;;;5045360;28;20044;-66
2023/07/30 09:37:18;;;;;;;;;;;15.10;99.90;;;;;;5045660;28;20681;-66
2023/07/30 09:39:47;;;;;;;3.08;1.90;;;15.00;99.90;;;;;;5045417;28;19917;-66
2023/07/30 09:42:12;;;;;;;2.90;1.73;;;15.00;99.90;;;;;;5045420;28;20068;-65
2023/07/30 09:44:39;;;;;;;;;;;15.00;99.90;;;;;;5045983;28;20068;-66
2023/07/30 09:47:06;;;;;;;3.00;1.80;;;15.00;99.90;;;;;;5039694;28;20308;-65
2023/07/30 09:49:32;;;;;;;3.40;2.47;;;15.00;99.90;;;;;;5045238;28;20524;-66
2023/07/30 09:51:58;;;;;;;5.55;2.17;;;15.00;99.90;;;;;;5040620;28;20040;-65
2023/07/30 09:54:23;;;;;;;4.88;2.30;;;14.90;99.90;;;;;;5045122;28;20048;-65
2023/07/30 09:56:49;;;;;;;;;;;14.90;99.90;;;;;;5046332;28;20104;-65
2023/07/30 09:59:15;;;;;;;3.95;2.13;;;15.00;99.90;;;;;;5044784;28;20030;-65
2023/07/30 10:01:45;;;;;;;;;;;15.10;99.90;;;;;;5042845;28;20041;-66
2023/07/30 10:04:12;;;;;;;4.82;2.10;;;15.20;99.90;;;;;;5036397;28;19920;-65
2023/07/30 10:06:47;;;;;;;5.20;2.78;;;15.30;99.90;;;;;;5030405;28;20081;-65
2023/07/30 10:09:14;;;;;;;4.10;2.83;;;15.30;99.90;;;;;;5044875;28;20049;-65
2023/07/30 10:11:42;;;;;;;8.48;3.13;;;15.20;99.90;;;;;;5045053;28;20037;-65
2023/07/30 10:14:08;;;;;;;6.97;4.05;;;15.20;99.90;;;;;;5046039;28;20404;-65
2023/07/30 10:16:34;;;;;;;;;;;15.20;99.90;;;;;;5044034;28;20045;-65
2023/07/30 10:18:59;;;;;;;7.43;3.92;;;15.10;99.90;;;;;;5043592;28;19924;-67
2023/07/30 10:21:26;;;;;;;11.02;4.25;;;15.00;99.90;;;;;;5045090;28;20029;-66
2023/07/30 10:24:05;;;;;;;9.02;4.50;;;15.00;99.90;;;;;;5044309;28;20035;-66
2023/07/30 10:26:36;;;;;;;12.13;5.15;;;14.90;99.90;;;;;;5044240;28;20037;-65
2023/07/30 10:29:15;;;;;;;8.32;5.38;;;15.00;99.90;;;;;;5044127;28;20045;-66
2023/07/30 10:31:43;;;;;;;13.23;5.70;;;15.00;99.90;;;;;;5042889;28;20092;-66
2023/07/30 10:34:10;;;;;;;7.97;5.20;;;15.00;99.90;;;;;;5044263;28;20067;-65
2023/07/30 10:36:44;;;;;;;12.07;5.72;;;15.00;99.90;;;;;;5046619;28;20036;-65
2023/07/30 10:39:12;;;;;;;8.35;5.53;;;15.00;99.90;;;;;;5035561;28;20033;-65
2023/07/30 10:41:38;;;;;;;8.77;5.20;;;15.10;99.90;;;;;;5036039;28;20033;-65
2023/07/30 10:44:04;;;;;;;12.60;5.53;;;15.10;99.90;;;;;;5045817;28;20090;-65
2023/07/30 10:46:29;;;;;;;11.35;4.90;;;15.20;99.90;;;;;;5044954;28;20053;-66
2023/07/30 10:48:55;;;;;;;;;;;15.40;99.90;;;;;;5040582;28;20118;-65
2023/07/30 10:51:21;;;;;;;13.57;5.10;;;15.40;99.90;;;;;;5041692;28;19917;-65
2023/07/30 10:53:47;;;;;;;;;;;15.40;99.90;;;;;;5043115;28;20041;-65
2023/07/30 10:56:15;;;;;;;7.20;4.30;;;15.40;99.90;;;;;;5044614;28;19920;-66
2023/07/30 10:58:43;;;;;;;11.23;4.18;;;15.40;99.90;;;;;;5044149;28;20049;-65
2023/07/30 11:01:09;;;;;;;8.88;3.80;;;15.30;99.90;;;;;;5043280;28;20045;-65
2023/07/30 11:03:37;;;;;;;7.55;3.47;;;15.40;99.90;;;;;;5037803;28;20033;-66
2023/07/30 11:06:03;;;;;;;9.18;3.35;;;15.40;99.90;;;;;;5039278;28;20053;-65
2023/07/30 11:08:33;;;;;;;;;;;15.40;99.90;;;;;;5043669;28;20058;-65
2023/07/30 11:10:59;;;;;;;6.35;3.00;;;15.50;99.90;;;;;;5044932;28;19917;-65
2023/07/30 11:13:25;;;;;;;10.98;4.05;;;15.50;99.90;;;;;;5043830;28;20045;-66
2023/07/30 11:15:50;;;;;;;;;;;15.60;99.90;;;;;;5044430;28;20456;-65
2023/07/30 11:18:16;;;;;;;5.85;2.90;;;15.70;99.90;;;;;;5033706;28;19921;-66
2023/07/30 11:20:42;;;;;;;;;;;15.90;99.90;;;;;;5039856;28;20029;-66
2023/07/30 11:23:23;;;;;;;7.93;2.90;;;16.10;99.90;;;;;;5037214;28;19925;-66
2023/07/30 11:25:52;;;;;;;7.82;2.67;;;16.20;99.90;;;;;;5024344;28;20088;-65
2023/07/30 11:28:34;;;;;;;6.35;2.70;;;16.30;99.90;;;;;;5031672;28;20115;-65
2023/07/30 11:31:11;;;;;;;6.53;2.47;;;16.30;99.90;;;;;;5043089;28;20040;-66
2023/07/30 11:33:47;;;;;;;8.23;2.80;;;16.30;99.90;;;;;;5042022;28;20033;-66
2023/07/30 11:36:16;;;;;;;7.65;3.25;;;16.40;99.90;;;;;;5044695;28;20080;-65
2023/07/30 11:38:42;;;;;;;8.52;3.05;;;16.40;99.90;;;;;;5044491;28;20055;-65
2023/07/30 11:41:10;;;;;;;12.05;3.42;;;16.30;99.90;;;;;;5044730;28;20045;-65
2023/07/30 11:43:41;;;;;;;11.82;3.08;;;16.20;99.90;;;;;;5044082;28;20405;-66
2023/07/30 11:46:18;;;;;;;8.00;2.58;;;16.20;99.90;;;;;;5043998;28;20053;-66
2023/07/30 11:48:46;;;;;;;7.82;2.65;;;16.20;99.90;;;;;;5033692;28;20100;-65
2023/07/30 11:51:25;;;;;;;7.30;3.00;;;16.40;99.90;;;;;;5024586;28;20076;-65
2023/07/30 11:53:56;;;;;;;6.18;2.70;;;16.70;99.90;;;;;;5033102;28;20047;-65
2023/07/30 11:56:30;;;;;;;11.25;2.78;;;16.80;99.90;;;;;;5044293;28;20049;-66
2023/07/30 11:59:01;;;;;;;8.95;2.47;;;16.90;99.90;;;;;;5043495;28;20134;-65
2023/07/30 12:01:30;;;;;;;12.95;2.42;;;17.10;99.90;;;;;;5043314;28;20719;-66
2023/07/30 12:03:59;;;;;;;7.88;2.45;;;17.20;99.90;;;;;;5041258;28;20037;-67
2023/07/30 12:06:43;;;;;;;8.35;2.38;;;17.40;99.90;;;;;;5042976;28;20049;-66
2023/07/30 12:09:12;;;;;;;7.00;1.92;;;17.20;99.90;;;;;;5043159;28;20218;-65
2023/07/30 12:11:54;;;;;;;7.53;2.08;;;17.10;99.90;;;;;;5043913;28;20064;-66
2023/07/30 12:14:25;;;;;;;8.13;2.33;;;17.10;99.90;;;;;;5045736;28;20508;-66
2023/07/30 12:16:51;;;;;;;6.05;1.80;;;17.00;99.90;;;;;;5047622;28;20714;-66
2023/07/30 12:19:16;;;;;;;;;;;16.90;99.90;;;;;;5036904;28;20037;-66
2023/07/30 12:21:42;;;;;;;9.50;2.20;;;16.90;99.90;;;;;;5028156;28;19917;-65
2023/07/30 12:24:08;;;;;;;;;;;17.10;99.90;;;;;;5044047;28;20048;-66
2023/07/30 12:26:34;;;;;;;8.50;2.78;;;17.40;99.90;;;;;;5047586;28;19951;-65
2023/07/30 12:28:59;;;;;;;8.50;2.13;;;17.60;99.90;;;;;;5048389;28;20029;-65
2023/07/30 12:31:25;;;;;;;;;;;17.90;99.90;;;;;;5046945;28;20041;-66
2023/07/30 12:33:50;;;;;;;7.03;1.73;;;18.20;99.90;;;;;;5043711;28;20424;-66
2023/07/30 12:36:16;;;;;;;7.25;1.50;;;18.40;99.90;;;;;;5042560;28;20132;-66
2023/07/30 12:38:41;;;;;;;7.05;1.98;;;18.40;99.90;;;;;;5036514;28;20044;-66
2023/07/30 12:41:07;;;;;;;5.70;1.40;;;18.40;99.90;;;;;;5043585;28;20502;-66
2023/07/30 12:43:33;;;;;;;2.88;1.13;;;18.30;99.90;;;;;;5046610;28;20048;-65
2023/07/30 12:45:58;;;;;;;;;;;18.50;99.90;;;;;;5039419;28;20052;-66
2023/07/30 12:48:24;;;;;;;7.40;2.10;;;18.40;99.90;;;;;;5043576;28;19932;-66
2023/07/30 12:50:49;;;;;;;4.78;1.23;;;18.50;99.90;;;;;;5045110;28;20049;-65
2023/07/30 12:53:15;;;;;;;5.85;1.30;;;18.70;99.90;;;;;;5045660;28;20047;-65
2023/07/30 12:55:41;;;;;;;5.03;1.20;;;18.80;99.90;;;;;;5038309;28;20060;-66
2023/07/30 12:58:06;;;;;;;6.40;1.40;;;18.80;99.90;;;;;;5042473;28;20500;-66
2023/07/30 13:00:33;;;;;;;;;;;18.60;99.90;;;;;;5045101;28;20040;-65
2023/07/30 13:02:59;;;;;;;5.45;1.38;;;18.70;99.90;;;;;;5045449;28;20011;-65
2023/07/30 13:05:25;;;;;;;6.72;1.48;;;18.70;99.90;;;;;;5044529;28;20642;-66
2023/07/30 13:07:51;;;;;;;9.32;1.85;;;18.50;99.90;;;;;;5046114;28;20512;-66